sensor_id;sensor_type;location;lat;lon;timestamp;P1;durP1;ratioP1;P2;durP2;ratioP2
23802;SDS011;12082;51.786;6.018;2023-12-29T00:01:56;5.87;;;1.97;;
23802;SDS011;12082;51.786;6.018;2023-12-29T00:04:21;5.40;;;1.97;;
23802;SDS011;12082;51.786;6.018;2023-12-29T00:06:47;7.03;;;2.10;;
23802;SDS011;12082;51.786;6.018;2023-12-29T00:09:14;5.73;;;1.93;;
23802;SDS011;12082;51.786;6.018;2023-12-29T00:11:39;8.37;;;2.10;;
23802;SDS011;12082;51.786;6.018;2023-12-29T00:14:05;5.00;;;2.13;;
23802;SDS011;12082;51.786;6.018;2023-12-29T00:16:31;8.50;;;2.07;;
23802;SDS011;12082;51.786;6.018;2023-12-29T00:18:56;6.60;;;1.83;;
23802;SDS011;12082;51.786;6.018;2023-12-29T00:21:22;6.07;;;2.20;;
23802;SDS011;12082;51.786;6.018;2023-12-29T00:23:47;10.90;;;1.80;;
23802;SDS011;12082;51.786;6.018;2023-12-29T00:26:15;14.60;;;2.53;;
23802;SDS011;12082;51.786;6.018;2023-12-29T00:28:42;6.63;;;1.83;;
23802;SDS011;12082;51.786;6.018;2023-12-29T00:31:08;12.23;;;2.27;;
23802;SDS011;12082;51.786;6.018;2023-12-29T00:33:34;7.37;;;1.80;;
23802;SDS011;12082;51.786;6.018;2023-12-29T00:35:59;6.60;;;2.30;;
23802;SDS011;12082;51.786;6.018;2023-12-29T00:38:26;5.63;;;2.10;;
23802;SDS011;12082;51.786;6.018;2023-12-29T00:40:52;14.90;;;2.40;;
23802;SDS011;12082;51.786;6.018;2023-12-29T00:43:18;4.77;;;2.17;;
23802;SDS011;12082;51.786;6.018;2023-12-29T00:45:43;8.83;;;1.63;;
23802;SDS011;12082;51.786;6.018;2023-12-29T00:48:09;8.07;;;2.07;;
23802;SDS011;12082;51.786;6.018;2023-12-29T00:50:35;5.87;;;2.00;;
23802;SDS011;12082;51.786;6.018;2023-12-29T00:53:00;7.23;;;2.17;;
23802;SDS011;12082;51.786;6.018;2023-12-29T00:55:26;11.70;;;2.20;;
23802;SDS011;12082;51.786;6.018;2023-12-29T00:57:51;7.17;;;2.37;;
23802;SDS011;12082;51.786;6.018;2023-12-29T01:00:17;6.53;;;2.40;;
23802;SDS011;12082;51.786;6.018;2023-12-29T01:02:42;6.87;;;2.40;;
23802;SDS011;12082;51.786;6.018;2023-12-29T01:05:08;5.23;;;2.33;;
23802;SDS011;12082;51.786;6.018;2023-12-29T01:07:33;6.70;;;2.43;;
23802;SDS011;12082;51.786;6.018;2023-12-29T01:09:59;14.43;;;2.43;;
23802;SDS011;12082;51.786;6.018;2023-12-29T01:12:25;13.37;;;2.87;;
23802;SDS011;12082;51.786;6.018;2023-12-29T01:14:51;7.80;;;2.23;;
23802;SDS011;12082;51.786;6.018;2023-12-29T01:17:17;8.07;;;2.77;;
23802;SDS011;12082;51.786;6.018;2023-12-29T01:19:42;7.03;;;2.30;;
23802;SDS011;12082;51.786;6.018;2023-12-29T01:22:08;12.47;;;3.10;;
23802;SDS011;12082;51.786;6.018;2023-12-29T01:24:33;14.23;;;3.03;;
23802;SDS011;12082;51.786;6.018;2023-12-29T01:26:59;12.90;;;2.73;;
23802;SDS011;12082;51.786;6.018;2023-12-29T01:29:24;8.30;;;2.37;;
23802;SDS011;12082;51.786;6.018;2023-12-29T01:31:50;8.30;;;2.90;;
23802;SDS011;12082;51.786;6.018;2023-12-29T01:34:15;7.47;;;2.53;;
23802;SDS011;12082;51.786;6.018;2023-12-29T01:36:41;10.37;;;3.20;;
23802;SDS011;12082;51.786;6.018;2023-12-29T01:39:06;11.90;;;2.70;;
23802;SDS011;12082;51.786;6.018;2023-12-29T01:41:32;5.50;;;2.53;;
23802;SDS011;12082;51.786;6.018;2023-12-29T01:46:30;11.67;;;2.70;;
23802;SDS011;12082;51.786;6.018;2023-12-29T01:48:58;7.80;;;2.53;;
23802;SDS011;12082;51.786;6.018;2023-12-29T01:51:24;8.40;;;2.40;;
23802;SDS011;12082;51.786;6.018;2023-12-29T01:53:52;10.10;;;2.20;;
23802;SDS011;12082;51.786;6.018;2023-12-29T01:56:19;7.67;;;2.57;;
23802;SDS011;12082;51.786;6.018;2023-12-29T01:58:45;4.87;;;2.37;;
23802;SDS011;12082;51.786;6.018;2023-12-29T02:01:13;8.83;;;2.27;;
23802;SDS011;12082;51.786;6.018;2023-12-29T02:03:40;9.70;;;2.10;;
23802;SDS011;12082;51.786;6.018;2023-12-29T02:06:06;9.83;;;2.30;;
23802;SDS011;12082;51.786;6.018;2023-12-29T02:08:31;10.63;;;2.63;;
23802;SDS011;12082;51.786;6.018;2023-12-29T02:10:57;16.57;;;2.87;;
23802;SDS011;12082;51.786;6.018;2023-12-29T02:13:23;11.70;;;2.40;;
23802;SDS011;12082;51.786;6.018;2023-12-29T02:15:52;11.63;;;2.43;;
23802;SDS011;12082;51.786;6.018;2023-12-29T02:18:20;6.93;;;2.40;;
23802;SDS011;12082;51.786;6.018;2023-12-29T02:20:47;6.93;;;2.23;;
23802;SDS011;12082;51.786;6.018;2023-12-29T02:23:12;6.37;;;2.50;;
23802;SDS011;12082;51.786;6.018;2023-12-29T02:25:38;10.37;;;2.80;;
23802;SDS011;12082;51.786;6.018;2023-12-29T02:28:07;9.83;;;2.40;;
23802;SDS011;12082;51.786;6.018;2023-12-29T02:33:25;9.53;;;2.43;;
23802;SDS011;12082;51.786;6.018;2023-12-29T02:35:53;9.53;;;2.93;;
23802;SDS011;12082;51.786;6.018;2023-12-29T02:38:22;9.33;;;2.90;;
23802;SDS011;12082;51.786;6.018;2023-12-29T02:40:47;16.63;;;2.30;;
23802;SDS011;12082;51.786;6.018;2023-12-29T02:43:13;10.43;;;2.70;;
23802;SDS011;12082;51.786;6.018;2023-12-29T02:45:39;6.50;;;3.13;;
23802;SDS011;12082;51.786;6.018;2023-12-29T02:48:04;10.13;;;2.90;;
23802;SDS011;12082;51.786;6.018;2023-12-29T02:50:30;15.03;;;3.07;;
23802;SDS011;12082;51.786;6.018;2023-12-29T02:52:56;8.00;;;2.47;;
23802;SDS011;12082;51.786;6.018;2023-12-29T02:55:21;6.17;;;2.57;;
23802;SDS011;12082;51.786;6.018;2023-12-29T02:57:47;12.67;;;3.40;;
23802;SDS011;12082;51.786;6.018;2023-12-29T03:00:13;9.53;;;2.40;;
23802;SDS011;12082;51.786;6.018;2023-12-29T03:02:39;12.63;;;3.10;;
23802;SDS011;12082;51.786;6.018;2023-12-29T03:05:05;12.47;;;2.70;;
23802;SDS011;12082;51.786;6.018;2023-12-29T03:07:31;7.67;;;2.43;;
23802;SDS011;12082;51.786;6.018;2023-12-29T03:09:56;16.70;;;3.30;;
23802;SDS011;12082;51.786;6.018;2023-12-29T03:12:22;6.70;;;2.07;;
23802;SDS011;12082;51.786;6.018;2023-12-29T03:14:47;12.73;;;2.30;;
23802;SDS011;12082;51.786;6.018;2023-12-29T03:17:13;8.13;;;2.10;;
23802;SDS011;12082;51.786;6.018;2023-12-29T03:19:38;8.20;;;1.80;;
23802;SDS011;12082;51.786;6.018;2023-12-29T03:22:04;8.93;;;2.60;;
23802;SDS011;12082;51.786;6.018;2023-12-29T03:24:29;8.47;;;2.50;;
23802;SDS011;12082;51.786;6.018;2023-12-29T03:26:55;13.83;;;2.63;;
23802;SDS011;12082;51.786;6.018;2023-12-29T03:29:21;6.17;;;2.63;;
23802;SDS011;12082;51.786;6.018;2023-12-29T03:31:47;6.50;;;2.47;;
23802;SDS011;12082;51.786;6.018;2023-12-29T03:34:12;9.30;;;2.53;;
23802;SDS011;12082;51.786;6.018;2023-12-29T03:36:38;6.20;;;2.13;;
23802;SDS011;12082;51.786;6.018;2023-12-29T03:39:03;8.83;;;2.33;;
23802;SDS011;12082;51.786;6.018;2023-12-29T03:41:29;8.13;;;2.20;;
23802;SDS011;12082;51.786;6.018;2023-12-29T03:43:55;6.63;;;2.10;;
23802;SDS011;12082;51.786;6.018;2023-12-29T03:46:21;6.93;;;2.87;;
23802;SDS011;12082;51.786;6.018;2023-12-29T03:48:48;3.07;;;1.80;;
23802;SDS011;12082;51.786;6.018;2023-12-29T03:51:14;10.63;;;2.67;;
23802;SDS011;12082;51.786;6.018;2023-12-29T03:53:40;9.37;;;2.40;;
23802;SDS011;12082;51.786;6.018;2023-12-29T03:56:06;10.63;;;2.67;;
23802;SDS011;12082;51.786;6.018;2023-12-29T03:58:33;8.40;;;1.87;;
23802;SDS011;12082;51.786;6.018;2023-12-29T04:00:59;7.63;;;1.87;;
23802;SDS011;12082;51.786;6.018;2023-12-29T04:03:25;5.57;;;1.70;;
23802;SDS011;12082;51.786;6.018;2023-12-29T04:05:51;11.60;;;2.37;;
23802;SDS011;12082;51.786;6.018;2023-12-29T04:08:16;10.57;;;2.00;;
23802;SDS011;12082;51.786;6.018;2023-12-29T04:10:42;11.53;;;2.73;;
23802;SDS011;12082;51.786;6.018;2023-12-29T04:13:07;4.40;;;1.80;;
23802;SDS011;12082;51.786;6.018;2023-12-29T04:15:33;6.77;;;2.20;;
23802;SDS011;12082;51.786;6.018;2023-12-29T04:17:58;11.27;;;3.07;;
23802;SDS011;12082;51.786;6.018;2023-12-29T04:20:24;12.70;;;3.03;;
23802;SDS011;12082;51.786;6.018;2023-12-29T04:22:50;4.67;;;2.17;;
23802;SDS011;12082;51.786;6.018;2023-12-29T04:25:15;12.03;;;3.10;;
23802;SDS011;12082;51.786;6.018;2023-12-29T04:27:41;7.93;;;2.53;;
23802;SDS011;12082;51.786;6.018;2023-12-29T04:30:07;8.83;;;2.40;;
23802;SDS011;12082;51.786;6.018;2023-12-29T04:32:33;7.47;;;2.70;;
23802;SDS011;12082;51.786;6.018;2023-12-29T04:34:58;7.70;;;2.33;;
23802;SDS011;12082;51.786;6.018;2023-12-29T04:37:24;12.43;;;1.77;;
23802;SDS011;12082;51.786;6.018;2023-12-29T04:39:49;9.57;;;2.33;;
23802;SDS011;12082;51.786;6.018;2023-12-29T04:42:15;11.00;;;2.43;;
23802;SDS011;12082;51.786;6.018;2023-12-29T04:44:42;8.77;;;2.70;;
23802;SDS011;12082;51.786;6.018;2023-12-29T04:47:08;6.57;;;2.27;;
23802;SDS011;12082;51.786;6.018;2023-12-29T04:49:34;8.37;;;2.53;;
23802;SDS011;12082;51.786;6.018;2023-12-29T04:51:59;12.37;;;2.70;;
23802;SDS011;12082;51.786;6.018;2023-12-29T04:54:25;11.17;;;2.37;;
23802;SDS011;12082;51.786;6.018;2023-12-29T04:56:50;11.60;;;2.60;;
23802;SDS011;12082;51.786;6.018;2023-12-29T04:59:16;8.77;;;3.00;;
23802;SDS011;12082;51.786;6.018;2023-12-29T05:01:41;12.93;;;2.97;;
23802;SDS011;12082;51.786;6.018;2023-12-29T05:04:07;8.03;;;2.67;;
23802;SDS011;12082;51.786;6.018;2023-12-29T05:06:33;6.73;;;1.77;;
23802;SDS011;12082;51.786;6.018;2023-12-29T05:08:58;12.00;;;2.93;;
23802;SDS011;12082;51.786;6.018;2023-12-29T05:11:24;4.67;;;1.77;;
23802;SDS011;12082;51.786;6.018;2023-12-29T05:13:49;6.13;;;1.60;;
23802;SDS011;12082;51.786;6.018;2023-12-29T05:16:15;13.30;;;2.47;;
23802;SDS011;12082;51.786;6.018;2023-12-29T05:18:41;11.97;;;2.50;;
23802;SDS011;12082;51.786;6.018;2023-12-29T05:21:13;9.57;;;2.13;;
23802;SDS011;12082;51.786;6.018;2023-12-29T05:23:39;12.57;;;2.37;;
23802;SDS011;12082;51.786;6.018;2023-12-29T05:26:05;8.40;;;2.53;;
23802;SDS011;12082;51.786;6.018;2023-12-29T05:28:31;10.93;;;3.00;;
23802;SDS011;12082;51.786;6.018;2023-12-29T05:30:56;10.10;;;2.30;;
23802;SDS011;12082;51.786;6.018;2023-12-29T05:33:23;7.73;;;2.10;;
23802;SDS011;12082;51.786;6.018;2023-12-29T05:35:48;11.33;;;2.40;;
23802;SDS011;12082;51.786;6.018;2023-12-29T05:38:14;7.83;;;3.13;;
23802;SDS011;12082;51.786;6.018;2023-12-29T05:40:39;10.40;;;3.10;;
23802;SDS011;12082;51.786;6.018;2023-12-29T05:43:05;11.40;;;3.10;;
23802;SDS011;12082;51.786;6.018;2023-12-29T05:45:31;15.43;;;2.50;;
23802;SDS011;12082;51.786;6.018;2023-12-29T05:47:56;7.93;;;2.90;;
23802;SDS011;12082;51.786;6.018;2023-12-29T05:50:22;10.73;;;2.63;;
23802;SDS011;12082;51.786;6.018;2023-12-29T05:52:47;16.83;;;2.80;;
23802;SDS011;12082;51.786;6.018;2023-12-29T05:55:16;12.67;;;2.50;;
23802;SDS011;12082;51.786;6.018;2023-12-29T05:57:43;14.90;;;3.20;;
23802;SDS011;12082;51.786;6.018;2023-12-29T06:00:10;11.20;;;2.60;;
23802;SDS011;12082;51.786;6.018;2023-12-29T06:02:39;14.90;;;2.67;;
23802;SDS011;12082;51.786;6.018;2023-12-29T06:05:06;12.87;;;2.30;;
23802;SDS011;12082;51.786;6.018;2023-12-29T06:07:33;13.50;;;2.70;;
23802;SDS011;12082;51.786;6.018;2023-12-29T06:09:59;7.40;;;2.63;;
23802;SDS011;12082;51.786;6.018;2023-12-29T06:12:24;8.30;;;2.70;;
23802;SDS011;12082;51.786;6.018;2023-12-29T06:14:50;7.30;;;2.43;;
23802;SDS011;12082;51.786;6.018;2023-12-29T06:17:15;10.63;;;3.27;;
23802;SDS011;12082;51.786;6.018;2023-12-29T06:19:41;11.83;;;2.70;;
23802;SDS011;12082;51.786;6.018;2023-12-29T06:22:06;22.47;;;2.70;;
23802;SDS011;12082;51.786;6.018;2023-12-29T06:24:36;9.87;;;2.00;;
23802;SDS011;12082;51.786;6.018;2023-12-29T06:27:02;14.23;;;3.17;;
23802;SDS011;12082;51.786;6.018;2023-12-29T06:29:28;16.43;;;3.27;;
23802;SDS011;12082;51.786;6.018;2023-12-29T06:31:54;7.73;;;2.40;;
23802;SDS011;12082;51.786;6.018;2023-12-29T06:34:19;6.80;;;2.70;;
23802;SDS011;12082;51.786;6.018;2023-12-29T06:36:45;9.53;;;2.50;;
23802;SDS011;12082;51.786;6.018;2023-12-29T06:39:11;5.43;;;2.17;;
23802;SDS011;12082;51.786;6.018;2023-12-29T06:41:36;8.93;;;2.50;;
23802;SDS011;12082;51.786;6.018;2023-12-29T06:44:02;7.37;;;2.20;;
23802;SDS011;12082;51.786;6.018;2023-12-29T06:46:28;6.73;;;2.07;;
23802;SDS011;12082;51.786;6.018;2023-12-29T06:48:53;12.03;;;2.40;;
23802;SDS011;12082;51.786;6.018;2023-12-29T06:51:19;7.03;;;3.07;;
23802;SDS011;12082;51.786;6.018;2023-12-29T06:53:48;10.27;;;2.30;;
23802;SDS011;12082;51.786;6.018;2023-12-29T06:56:15;12.50;;;2.73;;
23802;SDS011;12082;51.786;6.018;2023-12-29T06:58:41;13.73;;;3.17;;
23802;SDS011;12082;51.786;6.018;2023-12-29T07:01:07;10.50;;;2.70;;
23802;SDS011;12082;51.786;6.018;2023-12-29T07:03:32;8.60;;;2.67;;
23802;SDS011;12082;51.786;6.018;2023-12-29T07:06:01;12.50;;;3.10;;
23802;SDS011;12082;51.786;6.018;2023-12-29T07:08:27;16.60;;;3.60;;
23802;SDS011;12082;51.786;6.018;2023-12-29T07:10:53;9.73;;;2.80;;
23802;SDS011;12082;51.786;6.018;2023-12-29T07:13:19;12.60;;;3.60;;
23802;SDS011;12082;51.786;6.018;2023-12-29T07:15:45;14.30;;;3.80;;
23802;SDS011;12082;51.786;6.018;2023-12-29T07:18:14;18.13;;;3.73;;
23802;SDS011;12082;51.786;6.018;2023-12-29T07:20:40;10.20;;;2.87;;
23802;SDS011;12082;51.786;6.018;2023-12-29T07:23:06;13.83;;;3.50;;
23802;SDS011;12082;51.786;6.018;2023-12-29T07:25:31;18.57;;;3.53;;
23802;SDS011;12082;51.786;6.018;2023-12-29T07:27:57;12.57;;;2.97;;
23802;SDS011;12082;51.786;6.018;2023-12-29T07:30:22;14.43;;;4.23;;
23802;SDS011;12082;51.786;6.018;2023-12-29T07:32:48;8.93;;;2.73;;
23802;SDS011;12082;51.786;6.018;2023-12-29T07:35:13;14.67;;;3.80;;
23802;SDS011;12082;51.786;6.018;2023-12-29T07:37:42;8.13;;;2.67;;
23802;SDS011;12082;51.786;6.018;2023-12-29T07:40:10;14.03;;;3.33;;
23802;SDS011;12082;51.786;6.018;2023-12-29T07:42:35;9.70;;;2.80;;
23802;SDS011;12082;51.786;6.018;2023-12-29T07:45:01;8.83;;;2.80;;
23802;SDS011;12082;51.786;6.018;2023-12-29T07:47:27;9.93;;;2.97;;
23802;SDS011;12082;51.786;6.018;2023-12-29T07:49:52;14.53;;;3.77;;
23802;SDS011;12082;51.786;6.018;2023-12-29T07:52:18;13.83;;;2.67;;
23802;SDS011;12082;51.786;6.018;2023-12-29T07:54:43;6.13;;;2.20;;
23802;SDS011;12082;51.786;6.018;2023-12-29T07:57:09;8.40;;;2.50;;
23802;SDS011;12082;51.786;6.018;2023-12-29T07:59:35;10.73;;;2.53;;
23802;SDS011;12082;51.786;6.018;2023-12-29T08:02:00;10.67;;;2.97;;
23802;SDS011;12082;51.786;6.018;2023-12-29T08:04:26;15.37;;;3.70;;
23802;SDS011;12082;51.786;6.018;2023-12-29T08:06:51;6.47;;;2.60;;
23802;SDS011;12082;51.786;6.018;2023-12-29T08:09:17;15.47;;;4.03;;
23802;SDS011;12082;51.786;6.018;2023-12-29T08:11:42;11.47;;;2.87;;
23802;SDS011;12082;51.786;6.018;2023-12-29T08:14:08;7.37;;;2.40;;
23802;SDS011;12082;51.786;6.018;2023-12-29T08:16:37;12.67;;;3.70;;
23802;SDS011;12082;51.786;6.018;2023-12-29T08:19:05;9.90;;;2.47;;
23802;SDS011;12082;51.786;6.018;2023-12-29T08:21:31;8.13;;;2.20;;
23802;SDS011;12082;51.786;6.018;2023-12-29T08:23:57;8.83;;;2.73;;
23802;SDS011;12082;51.786;6.018;2023-12-29T08:26:22;8.00;;;2.30;;
23802;SDS011;12082;51.786;6.018;2023-12-29T08:28:48;4.50;;;1.97;;
23802;SDS011;12082;51.786;6.018;2023-12-29T08:31:14;5.93;;;2.40;;
23802;SDS011;12082;51.786;6.018;2023-12-29T08:33:40;8.33;;;1.70;;
23802;SDS011;12082;51.786;6.018;2023-12-29T08:36:05;4.47;;;2.00;;
23802;SDS011;12082;51.786;6.018;2023-12-29T08:38:31;7.33;;;2.00;;
23802;SDS011;12082;51.786;6.018;2023-12-29T08:40:57;6.20;;;1.80;;
23802;SDS011;12082;51.786;6.018;2023-12-29T08:43:23;4.90;;;1.60;;
23802;SDS011;12082;51.786;6.018;2023-12-29T08:45:48;3.53;;;1.97;;
23802;SDS011;12082;51.786;6.018;2023-12-29T08:48:14;3.27;;;1.60;;
23802;SDS011;12082;51.786;6.018;2023-12-29T08:50:40;6.50;;;1.70;;
23802;SDS011;12082;51.786;6.018;2023-12-29T08:53:06;4.50;;;1.60;;
23802;SDS011;12082;51.786;6.018;2023-12-29T08:55:32;2.50;;;1.47;;
23802;SDS011;12082;51.786;6.018;2023-12-29T08:57:57;5.10;;;1.80;;
23802;SDS011;12082;51.786;6.018;2023-12-29T09:00:23;3.50;;;1.30;;
23802;SDS011;12082;51.786;6.018;2023-12-29T09:02:49;6.00;;;1.60;;
23802;SDS011;12082;51.786;6.018;2023-12-29T09:05:14;4.53;;;1.60;;
23802;SDS011;12082;51.786;6.018;2023-12-29T09:07:40;6.57;;;1.63;;
23802;SDS011;12082;51.786;6.018;2023-12-29T09:10:06;5.20;;;1.63;;
23802;SDS011;12082;51.786;6.018;2023-12-29T09:12:33;3.70;;;1.60;;
23802;SDS011;12082;51.786;6.018;2023-12-29T09:14:59;7.27;;;2.07;;
23802;SDS011;12082;51.786;6.018;2023-12-29T09:17:25;2.37;;;1.43;;
23802;SDS011;12082;51.786;6.018;2023-12-29T09:19:50;4.17;;;1.70;;
23802;SDS011;12082;51.786;6.018;2023-12-29T09:22:16;3.03;;;1.57;;
23802;SDS011;12082;51.786;6.018;2023-12-29T09:24:41;2.10;;;1.30;;
23802;SDS011;12082;51.786;6.018;2023-12-29T09:27:07;3.03;;;1.30;;
23802;SDS011;12082;51.786;6.018;2023-12-29T09:29:33;2.40;;;1.40;;
23802;SDS011;12082;51.786;6.018;2023-12-29T09:31:58;3.17;;;1.40;;
23802;SDS011;12082;51.786;6.018;2023-12-29T09:34:24;4.03;;;1.47;;
23802;SDS011;12082;51.786;6.018;2023-12-29T09:36:49;3.50;;;1.40;;
23802;SDS011;12082;51.786;6.018;2023-12-29T09:39:15;4.17;;;1.40;;
23802;SDS011;12082;51.786;6.018;2023-12-29T09:41:42;2.23;;;1.50;;
23802;SDS011;12082;51.786;6.018;2023-12-29T09:44:12;3.13;;;1.27;;
23802;SDS011;12082;51.786;6.018;2023-12-29T09:46:41;2.97;;;1.33;;
23802;SDS011;12082;51.786;6.018;2023-12-29T09:49:07;2.23;;;1.20;;
23802;SDS011;12082;51.786;6.018;2023-12-29T09:51:34;2.97;;;1.47;;
23802;SDS011;12082;51.786;6.018;2023-12-29T09:54:01;5.80;;;1.47;;
23802;SDS011;12082;51.786;6.018;2023-12-29T09:56:27;1.40;;;1.30;;
23802;SDS011;12082;51.786;6.018;2023-12-29T09:58:53;2.13;;;1.53;;
23802;SDS011;12082;51.786;6.018;2023-12-29T10:01:20;1.77;;;1.33;;
23802;SDS011;12082;51.786;6.018;2023-12-29T10:03:47;1.33;;;1.20;;
23802;SDS011;12082;51.786;6.018;2023-12-29T10:06:14;3.77;;;1.50;;
23802;SDS011;12082;51.786;6.018;2023-12-29T10:08:45;1.83;;;1.13;;
23802;SDS011;12082;51.786;6.018;2023-12-29T10:11:13;2.10;;;1.20;;
23802;SDS011;12082;51.786;6.018;2023-12-29T10:13:40;3.17;;;1.80;;
23802;SDS011;12082;51.786;6.018;2023-12-29T10:16:13;2.80;;;1.23;;
23802;SDS011;12082;51.786;6.018;2023-12-29T10:19:32;1.50;;;1.20;;
23802;SDS011;12082;51.786;6.018;2023-12-29T10:24:17;1.33;;;1.23;;
23802;SDS011;12082;51.786;6.018;2023-12-29T10:26:46;6.57;;;1.20;;
23802;SDS011;12082;51.786;6.018;2023-12-29T10:29:12;4.27;;;1.50;;
23802;SDS011;12082;51.786;6.018;2023-12-29T10:31:38;1.43;;;1.13;;
23802;SDS011;12082;51.786;6.018;2023-12-29T10:36:55;2.20;;;1.30;;
23802;SDS011;12082;51.786;6.018;2023-12-29T10:39:22;2.43;;;1.33;;
23802;SDS011;12082;51.786;6.018;2023-12-29T10:41:49;2.93;;;1.53;;
23802;SDS011;12082;51.786;6.018;2023-12-29T10:44:15;1.33;;;1.20;;
23802;SDS011;12082;51.786;6.018;2023-12-29T10:46:41;2.23;;;1.43;;
23802;SDS011;12082;51.786;6.018;2023-12-29T10:49:13;2.93;;;1.20;;
23802;SDS011;12082;51.786;6.018;2023-12-29T10:51:39;1.90;;;1.30;;
23802;SDS011;12082;51.786;6.018;2023-12-29T10:54:05;1.50;;;1.40;;
23802;SDS011;12082;51.786;6.018;2023-12-29T10:56:31;1.90;;;1.40;;
23802;SDS011;12082;51.786;6.018;2023-12-29T10:59:04;3.07;;;1.30;;
23802;SDS011;12082;51.786;6.018;2023-12-29T11:01:30;1.73;;;1.40;;
23802;SDS011;12082;51.786;6.018;2023-12-29T11:04:06;1.97;;;1.60;;
23802;SDS011;12082;51.786;6.018;2023-12-29T11:06:41;2.63;;;1.50;;
23802;SDS011;12082;51.786;6.018;2023-12-29T11:09:09;3.70;;;1.60;;
23802;SDS011;12082;51.786;6.018;2023-12-29T11:11:36;1.80;;;1.47;;
23802;SDS011;12082;51.786;6.018;2023-12-29T11:14:02;2.23;;;1.30;;
23802;SDS011;12082;51.786;6.018;2023-12-29T11:16:29;1.43;;;1.30;;
23802;SDS011;12082;51.786;6.018;2023-12-29T11:18:56;1.87;;;1.20;;
23802;SDS011;12082;51.786;6.018;2023-12-29T11:21:23;1.67;;;1.50;;
23802;SDS011;12082;51.786;6.018;2023-12-29T11:23:51;1.47;;;1.17;;
23802;SDS011;12082;51.786;6.018;2023-12-29T11:26:18;2.07;;;1.30;;
23802;SDS011;12082;51.786;6.018;2023-12-29T11:28:45;4.23;;;1.70;;
23802;SDS011;12082;51.786;6.018;2023-12-29T11:31:17;4.10;;;1.50;;
23802;SDS011;12082;51.786;6.018;2023-12-29T11:33:45;4.77;;;1.60;;
23802;SDS011;12082;51.786;6.018;2023-12-29T11:36:29;10.30;;;2.50;;
23802;SDS011;12082;51.786;6.018;2023-12-29T11:38:58;2.57;;;1.40;;
23802;SDS011;12082;51.786;6.018;2023-12-29T11:44:37;2.13;;;1.40;;
23802;SDS011;12082;51.786;6.018;2023-12-29T11:47:03;2.43;;;1.40;;
23802;SDS011;12082;51.786;6.018;2023-12-29T11:49:57;2.00;;;1.40;;
23802;SDS011;12082;51.786;6.018;2023-12-29T11:52:34;4.20;;;1.40;;
23802;SDS011;12082;51.786;6.018;2023-12-29T11:55:07;2.13;;;1.50;;
23802;SDS011;12082;51.786;6.018;2023-12-29T11:57:33;3.30;;;1.80;;
23802;SDS011;12082;51.786;6.018;2023-12-29T12:00:00;3.17;;;2.33;;
23802;SDS011;12082;51.786;6.018;2023-12-29T12:02:26;6.40;;;1.53;;
23802;SDS011;12082;51.786;6.018;2023-12-29T12:04:53;6.70;;;1.87;;
23802;SDS011;12082;51.786;6.018;2023-12-29T12:09:48;5.17;;;1.53;;
23802;SDS011;12082;51.786;6.018;2023-12-29T12:12:15;10.10;;;2.23;;
23802;SDS011;12082;51.786;6.018;2023-12-29T12:15:05;4.07;;;1.90;;
23802;SDS011;12082;51.786;6.018;2023-12-29T12:17:56;6.67;;;2.00;;
23802;SDS011;12082;51.786;6.018;2023-12-29T12:20:35;8.97;;;2.00;;
23802;SDS011;12082;51.786;6.018;2023-12-29T12:23:02;7.10;;;2.13;;
23802;SDS011;12082;51.786;6.018;2023-12-29T12:25:45;4.33;;;1.63;;
23802;SDS011;12082;51.786;6.018;2023-12-29T12:28:11;6.07;;;2.23;;
23802;SDS011;12082;51.786;6.018;2023-12-29T12:30:39;8.93;;;2.00;;
23802;SDS011;12082;51.786;6.018;2023-12-29T12:33:04;5.50;;;2.03;;
23802;SDS011;12082;51.786;6.018;2023-12-29T12:35:30;10.03;;;3.00;;
23802;SDS011;12082;51.786;6.018;2023-12-29T12:40:45;4.70;;;1.80;;
23802;SDS011;12082;51.786;6.018;2023-12-29T12:43:13;5.60;;;1.97;;
23802;SDS011;12082;51.786;6.018;2023-12-29T12:45:47;5.37;;;2.17;;
23802;SDS011;12082;51.786;6.018;2023-12-29T12:48:32;6.20;;;2.00;;
23802;SDS011;12082;51.786;6.018;2023-12-29T12:51:06;12.67;;;3.00;;
23802;SDS011;12082;51.786;6.018;2023-12-29T12:53:32;8.63;;;2.43;;
23802;SDS011;12082;51.786;6.018;2023-12-29T12:55:57;8.50;;;2.60;;
23802;SDS011;12082;51.786;6.018;2023-12-29T12:58:23;8.73;;;2.80;;
23802;SDS011;12082;51.786;6.018;2023-12-29T13:00:51;5.70;;;2.40;;
23802;SDS011;12082;51.786;6.018;2023-12-29T13:03:17;7.00;;;2.87;;
23802;SDS011;12082;51.786;6.018;2023-12-29T13:05:42;5.67;;;2.07;;
23802;SDS011;12082;51.786;6.018;2023-12-29T13:08:08;5.60;;;2.30;;
23802;SDS011;12082;51.786;6.018;2023-12-29T13:10:40;4.90;;;2.37;;
23802;SDS011;12082;51.786;6.018;2023-12-29T13:13:07;6.90;;;2.33;;
23802;SDS011;12082;51.786;6.018;2023-12-29T13:15:33;6.47;;;2.40;;
23802;SDS011;12082;51.786;6.018;2023-12-29T13:17:59;2.63;;;2.00;;
23802;SDS011;12082;51.786;6.018;2023-12-29T13:20:24;5.07;;;1.97;;
23802;SDS011;12082;51.786;6.018;2023-12-29T13:22:50;4.43;;;2.20;;
23802;SDS011;12082;51.786;6.018;2023-12-29T13:25:19;6.10;;;2.40;;
23802;SDS011;12082;51.786;6.018;2023-12-29T13:27:47;4.40;;;1.73;;
23802;SDS011;12082;51.786;6.018;2023-12-29T13:30:13;3.73;;;1.47;;
23802;SDS011;12082;51.786;6.018;2023-12-29T13:32:39;3.33;;;1.70;;
23802;SDS011;12082;51.786;6.018;2023-12-29T13:35:18;7.33;;;1.73;;
23802;SDS011;12082;51.786;6.018;2023-12-29T13:38:08;4.03;;;2.13;;
23802;SDS011;12082;51.786;6.018;2023-12-29T13:43:09;4.30;;;2.03;;
23802;SDS011;12082;51.786;6.018;2023-12-29T13:45:37;2.03;;;1.80;;
23802;SDS011;12082;51.786;6.018;2023-12-29T13:48:06;10.33;;;2.70;;
23802;SDS011;12082;51.786;6.018;2023-12-29T13:50:34;6.40;;;3.10;;
23802;SDS011;12082;51.786;6.018;2023-12-29T13:52:59;11.27;;;2.50;;
23802;SDS011;12082;51.786;6.018;2023-12-29T13:55:25;6.30;;;3.17;;
23802;SDS011;12082;51.786;6.018;2023-12-29T13:57:51;4.57;;;3.40;;
23802;SDS011;12082;51.786;6.018;2023-12-29T14:00:19;5.37;;;3.70;;
23802;SDS011;12082;51.786;6.018;2023-12-29T14:10:33;6.93;;;2.97;;
23802;SDS011;12082;51.786;6.018;2023-12-29T14:15:38;2.93;;;2.63;;
23802;SDS011;12082;51.786;6.018;2023-12-29T14:18:10;2.90;;;2.10;;
23802;SDS011;12082;51.786;6.018;2023-12-29T14:20:44;3.00;;;2.47;;
23802;SDS011;12082;51.786;6.018;2023-12-29T14:23:10;4.67;;;2.80;;
23802;SDS011;12082;51.786;6.018;2023-12-29T14:25:36;4.33;;;2.80;;
23802;SDS011;12082;51.786;6.018;2023-12-29T14:28:02;5.27;;;2.40;;
23802;SDS011;12082;51.786;6.018;2023-12-29T14:30:29;3.90;;;2.50;;
23802;SDS011;12082;51.786;6.018;2023-12-29T14:32:57;6.17;;;2.83;;
23802;SDS011;12082;51.786;6.018;2023-12-29T14:35:23;4.43;;;2.67;;
23802;SDS011;12082;51.786;6.018;2023-12-29T14:37:49;3.73;;;2.77;;
23802;SDS011;12082;51.786;6.018;2023-12-29T14:40:15;6.30;;;3.00;;
23802;SDS011;12082;51.786;6.018;2023-12-29T14:42:40;4.23;;;2.53;;
23802;SDS011;12082;51.786;6.018;2023-12-29T14:45:06;8.93;;;2.57;;
23802;SDS011;12082;51.786;6.018;2023-12-29T14:47:33;6.00;;;2.97;;
23802;SDS011;12082;51.786;6.018;2023-12-29T14:50:00;3.67;;;3.03;;
23802;SDS011;12082;51.786;6.018;2023-12-29T14:52:25;13.33;;;3.07;;
23802;SDS011;12082;51.786;6.018;2023-12-29T14:54:51;9.67;;;3.10;;
23802;SDS011;12082;51.786;6.018;2023-12-29T14:57:17;6.13;;;3.10;;
23802;SDS011;12082;51.786;6.018;2023-12-29T14:59:42;6.07;;;2.90;;
23802;SDS011;12082;51.786;6.018;2023-12-29T15:02:08;5.80;;;2.97;;
23802;SDS011;12082;51.786;6.018;2023-12-29T15:04:34;3.53;;;2.57;;
23802;SDS011;12082;51.786;6.018;2023-12-29T15:07:00;4.50;;;3.13;;
23802;SDS011;12082;51.786;6.018;2023-12-29T15:09:27;6.37;;;2.53;;
23802;SDS011;12082;51.786;6.018;2023-12-29T15:11:52;6.50;;;2.73;;
23802;SDS011;12082;51.786;6.018;2023-12-29T15:14:19;3.70;;;2.33;;